Time;durP1;ratioP1;P1;durP2;ratioP2;P2;SDS_P1;SDS_P2;PMS_P1;PMS_P2;Temp;Humidity;BMP_temperature;BMP_pressure;BME280_temperature;BME280_humidity;BME280_pressure;Samples;Min_cycle;Max_cycle;Signal;HPM_P1;HPM_P2
2021/08/08 00:01:12;;;;;;;8.87;2.70;;;;;;;14.95;100.00;98284.38;10454544;28;20187;-83
2021/08/08 00:06:31;;;;;;;11.50;3.73;;;;;;;14.98;100.00;98280.72;10482195;28;20202;-83
2021/08/08 00:11:50;;;;;;;10.30;2.90;;;;;;;14.94;100.00;98277.31;10497156;28;20253;-83
2021/08/08 00:17:09;;;;;;;3.27;2.47;;;;;;;15.04;100.00;98287.22;10495771;28;20174;-83
2021/08/08 00:22:29;;;;;;;8.83;2.63;;;;;;;15.05;100.00;98303.41;10497117;28;20190;-82
2021/08/08 00:27:48;;;;;;;5.00;2.67;;;;;;;15.01;100.00;98297.22;10493438;28;20219;-83
2021/08/08 00:33:07;;;;;;;5.50;2.73;;;;;;;14.98;100.00;98308.41;10462130;28;20199;-84
2021/08/08 00:38:27;;;;;;;4.87;2.47;;;;;;;14.96;100.00;98317.16;10462887;28;20266;-82
2021/08/08 00:43:46;;;;;;;5.87;2.63;;;;;;;14.84;100.00;98306.88;10462991;28;20179;-82
2021/08/08 00:49:05;;;;;;;2.40;2.20;;;;;;;14.81;100.00;98301.47;10459857;28;20597;-83
2021/08/08 00:54:24;;;;;;;4.30;2.00;;;;;;;14.82;100.00;98289.94;10462543;28;20172;-82
2021/08/08 00:59:43;;;;;;;1.97;1.80;;;;;;;14.80;100.00;98302.69;10487478;28;20241;-83
2021/08/08 01:05:08;;;;;;;3.00;2.30;;;;;;;14.76;100.00;98313.88;10501142;28;20416;-82
2021/08/08 01:10:27;;;;;;;2.70;1.90;;;;;;;14.69;100.00;98302.25;10502465;28;20187;-81
2021/08/08 01:15:49;;;;;;;5.60;2.60;;;;;;;14.67;100.00;98299.94;10502539;28;20171;-80
2021/08/08 01:21:08;;;;;;;3.17;2.13;;;;;;;14.65;100.00;98302.38;10502957;28;20175;-84
2021/08/08 01:26:30;;;;;;;3.23;2.00;;;;;;;14.65;100.00;98307.13;10502427;28;20199;-81
2021/08/08 01:31:51;;;;;;;2.30;2.10;;;;;;;14.68;100.00;98309.03;10460097;28;20215;-81
2021/08/08 01:37:11;;;;;;;3.53;1.93;;;;;;;14.69;100.00;98305.03;10460216;28;20622;-80
2021/08/08 01:42:31;;;;;;;2.50;2.30;;;;;;;14.69;100.00;98307.81;10460296;28;20246;-82
2021/08/08 01:47:54;;;;;;;2.80;2.00;;;;;;;14.68;100.00;98314.56;10458038;28;20207;-80
2021/08/08 01:53:14;;;;;;;3.13;2.10;;;;;;;14.77;100.00;98317.44;10460247;28;20176;-80
2021/08/08 01:58:35;;;;;;;4.20;2.27;;;;;;;14.76;100.00;98332.50;10477971;28;20258;-81
2021/08/08 02:03:54;;;;;;;4.13;2.43;;;;;;;14.74;100.00;98348.75;10500208;28;20178;-84
2021/08/08 02:09:13;;;;;;;2.53;2.00;;;;;;;14.66;100.00;98342.66;10499654;28;20226;-81
2021/08/08 02:14:33;;;;;;;8.47;2.20;;;;;;;14.55;100.00;98338.69;10499233;28;20190;-80
2021/08/08 02:19:53;;;;;;;2.17;1.87;;;;;;;14.52;100.00;98351.41;10474921;28;20187;-82
2021/08/08 02:25:13;;;;;;;2.40;1.80;;;;;;;14.50;100.00;98356.63;10459012;28;20202;-81
2021/08/08 02:30:33;;;;;;;3.23;2.30;;;;;;;14.49;100.00;98368.13;10458909;28;20202;-80
2021/08/08 02:35:52;;;;;;;6.87;2.20;;;;;;;14.41;100.00;98364.81;10458603;28;20187;-82
2021/08/08 02:41:11;;;;;;;2.57;2.37;;;;;;;14.41;100.00;98383.41;10457827;28;20290;-82
2021/08/08 02:46:30;;;;;;;5.70;2.00;;;;;;;14.40;100.00;98392.91;10454942;28;20215;-80
2021/08/08 02:51:49;;;;;;;3.57;2.60;;;;;;;14.41;100.00;98406.34;10497631;28;20265;-81
2021/08/08 02:57:08;;;;;;;2.80;2.07;;;;;;;14.43;100.00;98411.41;10499083;28;20590;-81
2021/08/08 03:02:27;;;;;;;2.13;1.93;;;;;;;14.42;100.00;98410.63;10497644;28;20170;-81
2021/08/08 03:07:48;;;;;;;4.60;2.53;;;;;;;14.33;100.00;98409.75;10497414;28;20214;-83
2021/08/08 03:13:08;;;;;;;3.57;2.23;;;;;;;14.22;100.00;98419.56;10498532;28;20640;-84
2021/08/08 03:18:27;;;;;;;3.90;1.73;;;;;;;14.10;100.00;98423.03;10484932;28;20172;-81
2021/08/08 03:23:46;;;;;;;4.70;2.13;;;;;;;14.08;100.00;98434.53;10456795;28;20183;-80
2021/08/08 03:29:05;;;;;;;4.23;2.30;;;;;;;14.02;100.00;98435.50;10455924;28;20214;-83
2021/08/08 03:34:24;;;;;;;6.83;2.50;;;;;;;13.95;100.00;98446.75;10455256;28;20544;-80
2021/08/08 03:39:42;;;;;;;2.10;2.00;;;;;;;13.96;100.00;98446.34;10456055;28;20318;-83
2021/08/08 03:45:01;;;;;;;3.33;2.63;;;;;;;13.96;100.00;98454.63;10456241;28;20200;-80
2021/08/08 03:50:20;;;;;;;2.20;2.00;;;;;;;13.94;100.00;98454.28;10484552;28;20174;-83
2021/08/08 03:55:39;;;;;;;3.03;2.73;;;;;;;13.93;100.00;98476.84;10497603;28;20250;-84
2021/08/08 04:01:00;;;;;;;6.10;2.50;;;;;;;13.89;100.00;98474.16;10495549;28;20174;-84
2021/08/08 04:06:20;;;;;;;3.60;2.00;;;;;;;13.78;100.00;98481.97;10496322;28;20646;-83
2021/08/08 04:11:39;;;;;;;6.70;2.63;;;;;;;13.62;100.00;98489.50;10497239;28;20166;-83
2021/08/08 04:16:58;;;;;;;2.90;2.70;;;;;;;13.57;100.00;98493.56;10493682;28;20178;-82
2021/08/08 04:22:17;;;;;;;9.40;2.77;;;;;;;13.67;100.00;98489.00;10455399;28;20274;-82
2021/08/08 04:27:35;;;;;;;4.30;2.27;;;;;;;13.74;100.00;98510.94;10454666;28;20579;-81
2021/08/08 04:32:55;;;;;;;7.33;2.57;;;;;;;13.70;100.00;98508.25;10454152;28;20179;-80
2021/08/08 04:38:13;;;;;;;3.83;2.33;;;;;;;13.82;100.00;98517.81;10454642;28;20175;-80
2021/08/08 04:43:32;;;;;;;3.73;2.63;;;;;;;13.82;100.00;98517.81;10454119;28;20195;-80
2021/08/08 04:48:51;;;;;;;3.30;2.67;;;;;;;13.78;100.00;98530.94;10453332;28;20677;-82
2021/08/08 04:54:10;;;;;;;3.20;2.90;;;;;;;13.77;100.00;98541.25;10454991;28;20184;-83
2021/08/08 04:59:29;;;;;;;3.13;2.83;;;;;;;13.87;100.00;98539.41;10454903;28;20175;-83
2021/08/08 05:04:48;;;;;;;4.47;2.53;;;;;;;13.93;100.00;98546.75;10452371;28;20626;-83
2021/08/08 05:10:09;;;;;;;2.70;2.60;;;;;;;14.01;100.00;98567.47;10455021;28;20175;-81
2021/08/08 05:15:28;;;;;;;4.33;2.77;;;;;;;14.10;100.00;98569.63;10461756;28;20183;-80
2021/08/08 05:20:47;;;;;;;2.80;2.60;;;;;;;14.30;100.00;98575.84;10496221;28;20183;-82
2021/08/08 05:26:06;;;;;;;3.63;2.50;;;;;;;14.40;100.00;98570.03;10502452;28;20211;-82
2021/08/08 05:31:25;;;;;;;8.47;3.30;;;;;;;14.47;100.00;98572.59;10501435;28;20194;-80
2021/08/08 05:36:44;;;;;;;3.97;2.70;;;;;;;14.51;100.00;98579.59;10502294;28;20253;-81
2021/08/08 05:42:03;;;;;;;3.40;2.80;;;;;;;14.50;100.00;98585.56;10500802;28;20305;-83
2021/08/08 05:47:22;;;;;;;5.10;3.33;;;;;;;14.56;100.00;98589.34;10490130;28;20637;-82
2021/08/08 05:52:47;;;;;;;4.10;3.50;;;;;;;14.88;100.00;98592.78;10461355;28;20175;-83
2021/08/08 05:58:06;;;;;;;3.33;3.13;;;;;;;15.25;100.00;98597.66;10491771;28;20708;-84
2021/08/08 06:03:25;;;;;;;4.17;3.87;;;;;;;15.45;100.00;98601.00;10457739;28;20191;-84
2021/08/08 06:08:44;;;;;;;6.63;3.50;;;;;;;15.59;100.00;98606.88;10459324;28;20297;-83
2021/08/08 06:14:04;;;;;;;3.77;3.57;;;;;;;15.86;100.00;98590.56;10488828;28;20209;-82
2021/08/08 06:19:23;;;;;;;3.67;3.20;;;;;;;16.04;100.00;98601.84;10499517;28;20178;-81
2021/08/08 06:24:42;;;;;;;3.40;3.20;;;;;;;16.23;100.00;98614.69;10500006;28;20179;-83
2021/08/08 06:30:01;;;;;;;3.90;2.80;;;;;;;16.36;100.00;98612.69;10500216;28;20558;-83
2021/08/08 06:35:20;;;;;;;3.70;3.00;;;;;;;16.54;100.00;98626.75;10481462;28;20553;-81
2021/08/08 06:40:39;;;;;;;2.83;2.60;;;;;;;16.78;100.00;98623.88;10457114;28;20219;-82
2021/08/08 06:45:58;;;;;;;8.43;3.10;;;;;;;17.01;100.00;98634.53;10456838;28;20681;-80
2021/08/08 06:51:16;;;;;;;3.00;2.70;;;;;;;17.35;100.00;98628.91;10458253;28;20179;-80
2021/08/08 06:56:36;;;;;;;2.60;2.33;;;;;;;17.55;100.00;98634.88;10457998;28;20188;-81
2021/08/08 07:01:55;;;;;;;2.90;1.80;;;;;;;17.31;94.82;98638.63;10467129;28;20186;-81
2021/08/08 07:07:17;;;;;;;2.13;1.97;;;;;;;17.42;94.40;98645.31;10466701;28;20211;-79
2021/08/08 07:12:37;;;;;;;2.57;1.67;;;;;;;17.86;92.07;98657.91;10457157;28;20645;-79
2021/08/08 07:17:56;;;;;;;2.30;1.90;;;;;;;18.22;89.14;98658.06;10455788;28;20743;-79
2021/08/08 07:23:15;;;;;;;8.17;2.77;;;;;;;18.41;86.31;98659.66;10456763;28;20634;-78
2021/08/08 07:28:34;;;;;;;3.90;2.13;;;;;;;18.55;86.87;98663.41;10456176;28;20214;-78
2021/08/08 07:33:54;;;;;;;3.50;2.10;;;;;;;18.36;83.13;98663.03;10482801;28;20186;-79
2021/08/08 07:39:13;;;;;;;3.80;1.80;;;;;;;18.70;83.84;98661.56;10497843;28;20297;-78
2021/08/08 07:44:32;;;;;;;2.33;2.13;;;;;;;18.22;83.04;98675.53;10497834;28;20174;-81
2021/08/08 07:49:51;;;;;;;2.40;2.20;;;;;;;18.67;81.16;98670.81;10496289;28;20186;-79
2021/08/08 07:55:11;;;;;;;2.43;2.20;;;;;;;19.15;79.85;98671.97;10497608;28;20637;-81
2021/08/08 08:00:30;;;;;;;2.20;2.00;;;;;;;19.42;78.50;98672.69;10494125;28;20179;-80
2021/08/08 08:05:49;;;;;;;4.27;1.90;;;;;;;19.73;73.94;98679.59;10454922;28;20666;-77
2021/08/08 08:11:09;;;;;;;7.30;4.03;;;;;;;19.98;73.48;98670.88;10455559;28;20175;-80
2021/08/08 08:16:28;;;;;;;5.70;2.60;;;;;;;19.66;70.82;98668.78;10454389;28;20175;-79
2021/08/08 08:21:47;;;;;;;3.87;2.27;;;;;;;19.49;72.20;98667.59;10455440;28;20176;-80
2021/08/08 08:27:07;;;;;;;3.30;2.70;;;;;;;19.89;70.10;98668.06;10456063;28;20239;-81
2021/08/08 08:32:25;;;;;;;2.70;1.97;;;;;;;20.36;69.16;98680.13;10454146;28;20168;-78
2021/08/08 08:37:44;;;;;;;2.57;2.37;;;;;;;19.66;69.05;98674.38;10454928;28;20535;-78
2021/08/08 08:43:07;;;;;;;2.40;2.20;;;;;;;19.00;70.58;98691.28;10454368;28;20691;-78
2021/08/08 08:48:28;;;;;;;4.80;2.20;;;;;;;18.96;71.94;98692.69;10460346;28;20215;-77
2021/08/08 08:53:47;;;;;;;2.63;2.43;;;;;;;19.92;68.53;98683.09;10462731;28;20176;-79
2021/08/08 08:59:06;;;;;;;3.67;1.97;;;;;;;20.09;65.61;98690.66;10462720;28;20179;-79
2021/08/08 09:04:26;;;;;;;5.57;2.10;;;;;;;20.15;67.43;98681.19;10461009;28;20523;-77
2021/08/08 09:09:45;;;;;;;2.87;2.27;;;;;;;20.09;66.38;98685.06;10462267;28;20183;-79
2021/08/08 09:15:05;;;;;;;3.03;2.07;;;;;;;19.68;66.05;98691.38;10462052;28;20249;-77
2021/08/08 09:20:31;;;;;;;4.10;2.40;;;;;;;19.53;67.40;98700.91;10460449;28;20175;-79
2021/08/08 09:25:55;;;;;;;2.70;2.50;;;;;;;20.35;65.54;98684.19;10460151;28;20211;-78
2021/08/08 09:31:20;;;;;;;3.70;2.10;;;;;;;20.38;63.60;98696.44;10460209;28;20262;-77
2021/08/08 09:36:42;;;;;;;2.20;2.00;;;;;;;20.92;61.19;98696.88;10461140;28;20258;-78
2021/08/08 09:42:10;;;;;;;4.90;2.80;;;;;;;20.94;61.32;98702.78;10460407;28;20257;-78
2021/08/08 09:47:36;;;;;;;4.17;2.37;;;;;;;21.46;59.86;98694.38;10459089;28;20672;-77
2021/08/08 09:53:02;;;;;;;6.23;2.10;;;;;;;21.72;60.27;98696.19;10462510;28;20191;-79
2021/08/08 09:58:22;;;;;;;2.03;1.90;;;;;;;21.51;56.73;98701.34;10476058;28;20175;-77
2021/08/08 10:03:41;;;;;;;2.83;2.17;;;;;;;22.13;54.79;98692.25;10467239;28;20182;-77
2021/08/08 10:09:01;;;;;;;3.73;1.90;;;;;;;22.07;52.72;98716.63;10490923;28;20211;-79
2021/08/08 10:14:21;;;;;;;2.63;1.73;;;;;;;21.67;53.63;98706.50;10498006;28;20182;-77
2021/08/08 10:19:41;;;;;;;1.70;1.60;;;;;;;21.22;53.90;98723.69;10464837;28;20178;-78
2021/08/08 10:25:01;;;;;;;3.97;1.90;;;;;;;21.32;50.35;98714.75;10472223;28;20183;-78
2021/08/08 10:30:20;;;;;;;2.30;1.73;;;;;;;21.19;51.43;98705.06;10472124;28;20183;-78
2021/08/08 10:35:45;;;;;;;2.07;1.50;;;;;;;21.73;48.02;98703.31;10479490;28;20178;-79
2021/08/08 10:41:11;;;;;;;3.03;1.83;;;;;;;21.48;51.70;98699.53;10469033;28;20222;-78
2021/08/08 10:46:30;;;;;;;2.17;1.97;;;;;;;21.16;53.95;98708.84;10485192;28;20249;-79
2021/08/08 10:52:04;;;;;;;3.20;1.97;;;;;;;22.00;51.49;98714.22;10461565;28;20195;-80
2021/08/08 10:57:22;;;;;;;2.63;2.10;;;;;;;21.56;49.99;98723.13;10479447;28;20187;-78
2021/08/08 11:02:46;;;;;;;2.17;1.80;;;;;;;22.38;50.90;98719.69;10456440;28;20689;-77
2021/08/08 11:08:10;;;;;;;2.27;1.90;;;;;;;22.33;49.10;98728.81;10455935;28;20215;-78
2021/08/08 11:13:29;;;;;;;2.27;2.00;;;;;;;23.03;51.50;98713.47;10457404;28;20183;-79
2021/08/08 11:18:56;;;;;;;3.37;2.00;;;;;;;23.22;54.80;98726.78;10467858;28;20179;-79
2021/08/08 11:24:15;;;;;;;4.60;2.20;;;;;;;24.00;51.01;98731.94;10473467;28;20693;-78
2021/08/08 11:29:35;;;;;;;6.80;2.70;;;;;;;24.25;48.15;98727.06;10482579;28;20214;-79
2021/08/08 11:35:05;;;;;;;2.53;2.10;;;;;;;24.03;48.83;98734.53;10478705;28;20266;-78
2021/08/08 11:40:30;;;;;;;3.23;2.10;;;;;;;24.42;49.00;98729.97;10495126;28;20665;-77
2021/08/08 11:45:49;;;;;;;2.40;2.00;;;;;;;22.07;53.53;98739.03;10483423;28;20203;-77
2021/08/08 11:51:08;;;;;;;2.37;2.13;;;;;;;22.33;56.10;98742.06;10455177;28;20646;-78
2021/08/08 11:56:29;;;;;;;3.40;2.13;;;;;;;22.21;54.89;98755.06;10455876;28;20167;-78
2021/08/08 12:01:58;;;;;;;3.63;2.17;;;;;;;22.04;54.61;98756.06;10454757;28;20232;-78
2021/08/08 12:07:18;;;;;;;2.40;2.20;;;;;;;21.67;52.24;98754.09;10455606;28;20273;-78
2021/08/08 12:12:37;;;;;;;3.00;2.00;;;;;;;22.05;50.94;98763.19;10487126;28;20183;-79
2021/08/08 12:17:58;;;;;;;3.63;1.80;;;;;;;21.59;53.10;98755.72;10495997;28;20170;-79
2021/08/08 12:23:24;;;;;;;2.70;1.60;;;;;;;21.66;50.51;98752.56;10503869;28;20186;-78
2021/08/08 12:28:45;;;;;;;3.60;2.47;;;;;;;21.79;50.43;98763.00;10504639;28;20619;-78
2021/08/08 12:34:06;;;;;;;2.27;1.90;;;;;;;21.96;53.22;98763.28;10500303;28;20182;-78
2021/08/08 12:39:27;;;;;;;2.67;2.13;;;;;;;21.62;52.53;98766.75;10504376;28;20223;-78
2021/08/08 12:44:48;;;;;;;2.40;2.20;;;;;;;21.44;53.56;98777.28;10504602;28;20621;-78
2021/08/08 12:50:21;;;;;;;3.13;2.03;;;;;;;23.10;48.55;98764.38;10503125;28;20237;-78
2021/08/08 12:55:40;;;;;;;3.63;2.70;;;;;;;23.17;44.86;98777.22;10504237;28;20249;-78
2021/08/08 13:00:59;;;;;;;3.33;1.80;;;;;;;22.78;47.08;98767.44;10502495;28;20625;-77
2021/08/08 13:06:18;;;;;;;3.10;1.87;;;;;;;23.25;44.16;98775.53;10473793;28;20207;-79
2021/08/08 13:11:36;;;;;;;3.10;2.03;;;;;;;22.63;45.83;98791.94;10462023;28;20175;-78
2021/08/08 13:16:55;;;;;;;4.77;1.83;;;;;;;23.02;45.88;98788.47;10460607;28;20167;-78
2021/08/08 13:22:15;;;;;;;2.73;1.87;;;;;;;23.68;44.67;98792.13;10461687;28;20214;-79
2021/08/08 13:27:34;;;;;;;2.67;2.27;;;;;;;22.83;46.05;98795.56;10461118;28;20657;-80
2021/08/08 13:32:56;;;;;;;9.33;2.23;;;;;;;23.27;46.00;98796.22;10459011;28;20175;-79
2021/08/08 13:38:16;;;;;;;6.50;2.33;;;;;;;22.36;45.19;98800.72;10501269;28;20179;-79
2021/08/08 13:43:34;;;;;;;3.70;1.90;;;;;;;22.14;47.46;98794.69;10501379;28;20186;-80
2021/08/08 13:48:53;;;;;;;3.20;1.93;;;;;;;21.96;47.98;98803.31;10499181;28;20301;-79
2021/08/08 13:54:12;;;;;;;2.73;2.00;;;;;;;21.66;47.27;98816.94;10501945;28;20175;-78
2021/08/08 13:59:31;;;;;;;3.17;2.00;;;;;;;21.74;49.57;98794.47;10500659;28;20250;-80
2021/08/08 14:04:50;;;;;;;2.80;2.40;;;;;;;21.43;48.53;98807.31;10481307;28;20184;-78
2021/08/08 14:10:12;;;;;;;6.10;2.17;;;;;;;21.47;48.40;98815.53;10460609;28;20175;-77
2021/08/08 14:15:32;;;;;;;3.97;2.17;;;;;;;21.42;49.01;98807.78;10501093;28;20182;-78
2021/08/08 14:20:51;;;;;;;2.63;2.33;;;;;;;21.47;49.61;98813.50;10458571;28;20537;-77
2021/08/08 14:26:10;;;;;;;3.43;2.17;;;;;;;22.85;45.67;98803.53;10499845;28;20214;-77
2021/08/08 14:31:29;;;;;;;2.10;2.00;;;;;;;22.48;45.65;98802.44;10499074;28;20179;-77
2021/08/08 14:36:49;;;;;;;3.33;2.40;;;;;;;22.65;46.40;98790.22;10465156;28;20270;-80
2021/08/08 14:42:11;;;;;;;3.40;1.90;;;;;;;23.01;44.32;98817.03;10457686;28;20211;-78
2021/08/08 14:47:30;;;;;;;2.20;2.00;;;;;;;22.68;47.11;98816.53;10456558;28;20657;-78
2021/08/08 14:52:48;;;;;;;3.60;2.60;;;;;;;22.59;47.80;98820.19;10457103;28;20568;-77
2021/08/08 14:58:08;;;;;;;4.90;2.00;;;;;;;22.27;47.53;98834.41;10457914;28;20176;-77
2021/08/08 15:03:28;;;;;;;3.20;2.10;;;;;;;21.80;49.14;98851.38;10485577;28;20205;-77
2021/08/08 15:08:47;;;;;;;5.50;2.50;;;;;;;21.53;50.40;98853.56;10457114;28;20211;-78
2021/08/08 15:14:09;;;;;;;2.77;2.53;;;;;;;22.38;48.96;98848.63;10457412;28;20184;-78
2021/08/08 15:19:28;;;;;;;2.57;2.07;;;;;;;23.10;47.49;98836.56;10456240;28;20175;-78
2021/08/08 15:24:47;;;;;;;3.17;2.87;;;;;;;21.85;50.14;98849.91;10456876;28;20680;-77
2021/08/08 15:30:07;;;;;;;2.20;2.00;;;;;;;21.20;51.42;98852.09;10455954;28;20674;-77
2021/08/08 15:35:26;;;;;;;3.03;2.50;;;;;;;21.20;53.21;98866.09;10480187;28;20224;-78
2021/08/08 15:40:45;;;;;;;3.40;2.20;;;;;;;21.16;54.86;98921.47;10496634;28;20297;-78
2021/08/08 15:46:04;;;;;;;3.93;2.20;;;;;;;19.97;51.43;98937.38;10496277;28;20206;-79
2021/08/08 15:51:23;;;;;;;1.90;1.63;;;;;;;19.97;52.30;98956.13;10507053;28;20170;-78
2021/08/08 15:56:42;;;;;;;5.87;1.90;;;;;;;20.05;51.39;98950.56;10472581;28;20178;-78
2021/08/08 16:02:02;;;;;;;2.07;1.30;;;;;;;19.28;54.06;98952.28;10456446;28;20269;-78
2021/08/08 16:07:20;;;;;;;2.20;1.30;;;;;;;19.00;55.15;98958.19;10455613;28;20207;-77
2021/08/08 16:12:39;;;;;;;2.47;1.57;;;;;;;18.52;57.82;98981.91;10485877;28;20186;-77
2021/08/08 16:17:58;;;;;;;2.13;1.57;;;;;;;18.44;59.76;98966.69;10483035;28;20225;-78
2021/08/08 16:23:18;;;;;;;3.50;1.30;;;;;;;18.25;62.72;98980.19;10496830;28;20669;-77
2021/08/08 16:28:37;;;;;;;3.20;2.83;;;;;;;18.95;63.17;98979.06;10496563;28;20214;-77
2021/08/08 16:33:56;;;;;;;3.27;1.80;;;;;;;18.38;62.82;98986.44;10494646;28;20183;-77
2021/08/08 16:39:16;;;;;;;1.97;1.80;;;;;;;18.38;63.58;98984.44;10496713;28;20218;-77
2021/08/08 16:44:34;;;;;;;3.50;1.53;;;;;;;18.14;63.56;99002.78;10485391;28;20266;-77
2021/08/08 16:49:54;;;;;;;5.43;1.50;;;;;;;18.04;64.78;98994.81;10452257;28;20215;-76
2021/08/08 16:55:12;;;;;;;2.10;1.80;;;;;;;18.09;65.18;98994.25;10494600;28;20175;-77
2021/08/08 17:00:32;;;;;;;4.93;2.03;;;;;;;17.95;66.60;98991.94;10496284;28;20166;-78
2021/08/08 17:05:51;;;;;;;3.13;2.00;;;;;;;17.54;68.42;98994.91;10496460;28;20202;-78
2021/08/08 17:11:11;;;;;;;2.37;2.17;;;;;;;17.56;70.37;98988.94;10503446;28;20163;-77
2021/08/08 17:16:30;;;;;;;1.97;1.77;;;;;;;17.60;69.77;98984.81;10502241;28;20186;-77
2021/08/08 17:21:49;;;;;;;2.13;1.93;;;;;;;17.61;71.04;98989.91;10490732;28;20577;-77
2021/08/08 17:27:08;;;;;;;2.70;2.50;;;;;;;18.27;69.69;98999.97;10460247;28;20211;-78
2021/08/08 17:32:27;;;;;;;1.70;1.50;;;;;;;19.68;64.22;98986.47;10459910;28;20207;-77
2021/08/08 17:37:46;;;;;;;3.30;1.83;;;;;;;21.41;56.35;98999.34;10460310;28;20190;-77
2021/08/08 17:43:05;;;;;;;1.60;1.43;;;;;;;22.40;50.90;99005.91;10459297;28;20316;-77
2021/08/08 17:48:24;;;;;;;2.73;1.60;;;;;;;22.92;50.32;99021.94;10460135;28;20298;-75
2021/08/08 17:53:44;;;;;;;1.70;1.60;;;;;;;21.92;52.57;99020.44;10476479;28;20560;-75
2021/08/08 17:59:03;;;;;;;3.93;1.50;;;;;;;21.69;53.00;99033.16;10484378;28;20183;-79
2021/08/08 18:04:22;;;;;;;2.30;1.73;;;;;;;21.01;54.79;99044.44;10468843;28;20176;-75
2021/08/08 18:09:41;;;;;;;2.47;1.77;;;;;;;18.97;63.49;99051.88;10477849;28;20203;-76
2021/08/08 18:15:02;;;;;;;2.60;1.77;;;;;;;18.59;65.11;99056.09;10479870;28;20182;-77
2021/08/08 18:20:23;;;;;;;3.03;1.67;;;;;;;18.07;66.47;99055.94;10467222;28;20217;-76
2021/08/08 18:25:42;;;;;;;1.63;1.53;;;;;;;17.68;67.26;99062.00;10480042;28;20238;-77
2021/08/08 18:31:01;;;;;;;3.03;1.70;;;;;;;17.54;68.64;99063.69;10478099;28;20183;-76
2021/08/08 18:36:20;;;;;;;2.33;1.93;;;;;;;17.45;69.91;99069.91;10475107;28;20539;-77
2021/08/08 18:41:40;;;;;;;3.40;2.17;;;;;;;17.31;70.47;99078.72;10523005;28;20218;-77
2021/08/08 18:46:59;;;;;;;2.57;1.70;;;;;;;17.30;70.90;99091.06;10471144;28;20211;-77
2021/08/08 18:52:18;;;;;;;3.27;2.23;;;;;;;17.15;71.17;99098.22;10458293;28;20199;-78
2021/08/08 18:57:37;;;;;;;2.33;2.13;;;;;;;16.98;72.81;99099.53;10457180;28;20262;-78
2021/08/08 19:02:56;;;;;;;2.23;1.80;;;;;;;16.82;73.80;99107.94;10456848;28;20626;-78
2021/08/08 19:08:15;;;;;;;2.17;1.97;;;;;;;16.66;74.59;99123.09;10456184;28;20211;-78
2021/08/08 19:13:35;;;;;;;2.80;1.90;;;;;;;16.60;74.32;99130.41;10457529;28;20175;-78
2021/08/08 19:18:54;;;;;;;4.67;2.30;;;;;;;16.37;75.42;99130.63;10495091;28;20171;-77
2021/08/08 19:24:14;;;;;;;3.20;1.83;;;;;;;16.24;75.82;99136.09;10498323;28;20194;-78
2021/08/08 19:29:34;;;;;;;3.13;2.30;;;;;;;16.10;76.90;99147.56;10496896;28;20439;-78
2021/08/08 19:34:53;;;;;;;2.63;2.20;;;;;;;16.04;76.89;99145.72;10497047;28;20171;-77
2021/08/08 19:40:12;;;;;;;2.40;2.20;;;;;;;15.91;78.53;99147.66;10497752;28;20313;-78
2021/08/08 19:45:32;;;;;;;3.23;2.10;;;;;;;15.62;79.19;99160.59;10485221;28;20218;-78
2021/08/08 19:50:51;;;;;;;2.90;2.30;;;;;;;15.46;81.56;99166.09;10455162;28;20179;-77
2021/08/08 19:56:11;;;;;;;2.73;2.13;;;;;;;15.24;82.58;99176.09;10456132;28;20175;-77
2021/08/08 20:01:30;;;;;;;3.00;2.13;;;;;;;15.12;83.26;99175.13;10453904;28;20179;-78
2021/08/08 20:06:49;;;;;;;4.77;2.50;;;;;;;15.04;84.28;99179.25;10483970;28;20206;-78
2021/08/08 20:12:09;;;;;;;2.40;2.20;;;;;;;15.08;84.07;99188.28;10477337;28;20183;-78
2021/08/08 20:17:28;;;;;;;3.97;2.37;;;;;;;14.95;85.27;99195.66;10491770;28;20206;-76
2021/08/08 20:22:47;;;;;;;3.30;3.00;;;;;;;14.88;86.10;99198.56;10497053;28;20712;-78
2021/08/08 20:28:06;;;;;;;3.00;2.80;;;;;;;14.73;87.00;99195.31;10496684;28;20248;-77
2021/08/08 20:33:25;;;;;;;4.47;3.20;;;;;;;14.75;87.82;99214.25;10495559;28;20250;-78
2021/08/08 20:38:45;;;;;;;2.50;2.07;;;;;;;14.52;89.03;99217.06;10496667;28;20198;-76
2021/08/08 20:44:04;;;;;;;5.70;2.13;;;;;;;14.39;89.65;99218.84;10494560;28;20266;-76
2021/08/08 20:49:23;;;;;;;3.83;2.73;;;;;;;14.33;89.59;99219.75;10460371;28;20206;-77
2021/08/08 20:54:42;;;;;;;2.90;2.50;;;;;;;14.26;89.80;99226.19;10462904;28;20172;-76
2021/08/08 21:00:02;;;;;;;5.47;3.20;;;;;;;14.20;92.53;99227.88;10462827;28;20175;-76
2021/08/08 21:05:21;;;;;;;5.13;4.10;;;;;;;13.94;92.72;99236.94;10461225;28;20171;-78
2021/08/08 21:10:41;;;;;;;3.87;2.70;;;;;;;13.85;93.14;99238.66;10462405;28;20207;-78
2021/08/08 21:16:01;;;;;;;4.17;2.60;;;;;;;13.75;95.37;99240.38;10484980;28;20182;-77
2021/08/08 21:21:19;;;;;;;3.80;3.20;;;;;;;13.66;96.36;99240.09;10503322;28;20253;-78
2021/08/08 21:26:38;;;;;;;4.20;2.80;;;;;;;13.64;98.46;99239.75;10502926;28;20202;-78
2021/08/08 21:31:58;;;;;;;3.40;3.10;;;;;;;13.52;98.33;99241.47;10500554;28;20178;-78
2021/08/08 21:37:16;;;;;;;3.83;2.60;;;;;;;13.47;97.76;99250.25;10502757;28;20174;-78
2021/08/08 21:42:36;;;;;;;3.20;2.60;;;;;;;13.47;98.30;99248.25;10501829;28;20210;-77
2021/08/08 21:47:55;;;;;;;6.03;2.83;;;;;;;13.28;100.00;99248.09;10459356;28;20206;-79
2021/08/08 21:53:14;;;;;;;3.47;3.17;;;;;;;13.13;100.00;99253.00;10459738;28;20606;-78
2021/08/08 21:58:33;;;;;;;9.40;3.40;;;;;;;13.05;100.00;99251.50;10459475;28;20183;-76
2021/08/08 22:03:52;;;;;;;3.90;2.93;;;;;;;13.08;100.00;99252.69;10459002;28;20167;-78
2021/08/08 22:09:11;;;;;;;3.37;3.17;;;;;;;13.01;100.00;99255.50;10459640;28;20217;-78
2021/08/08 22:14:31;;;;;;;3.33;3.13;;;;;;;12.84;100.00;99250.94;10473656;28;20178;-78
2021/08/08 22:19:50;;;;;;;3.57;2.90;;;;;;;12.74;100.00;99255.38;10498692;28;20178;-78
2021/08/08 22:25:09;;;;;;;3.00;2.70;;;;;;;12.68;100.00;99267.25;10499697;28;20596;-78
2021/08/08 22:30:29;;;;;;;4.80;2.83;;;;;;;12.63;100.00;99261.41;10500569;28;20183;-78
2021/08/08 22:35:48;;;;;;;4.10;3.67;;;;;;;12.63;100.00;99262.19;10499091;28;20222;-78
2021/08/08 22:41:06;;;;;;;3.30;3.10;;;;;;;12.53;100.00;99262.28;10499627;28;20697;-78
2021/08/08 22:46:26;;;;;;;5.47;3.03;;;;;;;12.44;100.00;99267.47;10495267;28;20648;-79
2021/08/08 22:51:44;;;;;;;4.13;2.73;;;;;;;12.36;100.00;99258.47;10499778;28;20178;-78
2021/08/08 22:57:04;;;;;;;3.53;2.87;;;;;;;12.32;100.00;99266.00;10499601;28;20175;-77
2021/08/08 23:02:23;;;;;;;5.13;2.93;;;;;;;12.34;100.00;99271.91;10498070;28;20174;-77
2021/08/08 23:07:42;;;;;;;3.13;2.93;;;;;;;12.26;100.00;99258.56;10498690;28;20214;-77
2021/08/08 23:13:01;;;;;;;4.43;3.23;;;;;;;12.15;100.00;99269.66;10497442;28;20612;-76
2021/08/08 23:18:20;;;;;;;5.87;3.23;;;;;;;12.41;100.00;99271.84;10455947;28;20187;-77
2021/08/08 23:23:40;;;;;;;4.33;3.77;;;;;;;12.34;100.00;99268.34;10457120;28;20654;-78
2021/08/08 23:28:59;;;;;;;7.23;3.90;;;;;;;12.36;100.00;99268.72;10456399;28;20294;-76
2021/08/08 23:34:18;;;;;;;4.17;3.87;;;;;;;12.26;100.00;99269.59;10455577;28;20179;-77
2021/08/08 23:39:36;;;;;;;5.57;3.40;;;;;;;12.34;100.00;99268.34;10455464;28;20247;-76
2021/08/08 23:44:55;;;;;;;5.97;3.87;;;;;;;12.34;100.00;99268.34;10470111;28;20178;-76
2021/08/08 23:50:15;;;;;;;3.93;3.57;;;;;;;12.19;100.00;99262.16;10495698;28;20198;-78
2021/08/08 23:55:34;;;;;;;4.70;3.27;;;;;;;12.19;100.00;99255.84;10497800;28;20680;-77
